Time;durP1;ratioP1;P1;durP2;ratioP2;P2;SDS_P1;SDS_P2;PMS_P1;PMS_P2;Temp;Humidity;BMP_temperature;BMP_pressure;BME280_temperature;BME280_humidity;BME280_pressure;Samples;Min_cycle;Max_cycle;Signal;HPM_P1;HPM_P2
2023/12/20 00:00:26;;;;;;;1.92;0.90;;;6.00;99.90;;;5.23;100.00;97250.44;5004727;28;20029;-37
2023/12/20 00:02:52;;;;;;;1.25;0.75;;;6.00;99.90;;;5.25;100.00;97250.41;5008074;28;20037;-37
2023/12/20 00:05:18;;;;;;;1.33;0.82;;;6.00;99.90;;;5.24;100.00;97239.09;5004823;28;20035;-37
2023/12/20 00:07:43;;;;;;;1.00;0.80;;;6.00;99.90;;;5.25;100.00;97234.72;5009802;28;20099;-37
2023/12/20 00:10:09;;;;;;;1.25;1.02;;;6.00;99.90;;;5.25;100.00;97239.97;5008348;28;20052;-37
2023/12/20 00:12:35;;;;;;;1.42;0.82;;;6.10;99.90;;;5.24;100.00;97236.50;5005441;28;20992;-37
2023/12/20 00:15:00;;;;;;;1.10;0.85;;;6.10;99.90;;;5.29;100.00;97231.16;5011604;28;20489;-37
2023/12/20 00:17:26;;;;;;;1.13;0.80;;;6.10;99.90;;;5.29;100.00;97239.88;5010575;28;20223;-38
2023/12/20 00:19:52;;;;;;;1.40;0.90;;;6.10;99.90;;;5.29;100.00;97237.28;5008155;28;20030;-38
2023/12/20 00:22:17;;;;;;;1.90;0.90;;;6.10;99.90;;;5.31;100.00;97224.13;5010175;28;20040;-39
2023/12/20 00:24:43;;;;;;;1.55;0.70;;;6.10;99.90;;;5.29;100.00;97221.59;5011022;28;20394;-38
2023/12/20 00:27:09;;;;;;;1.20;0.80;;;6.10;99.90;;;5.32;100.00;97218.03;5012410;28;20044;-38
2023/12/20 00:29:34;;;;;;;1.35;0.80;;;6.10;99.90;;;5.20;100.00;97202.56;5010081;28;20501;-37
2023/12/20 00:32:00;;;;;;;0.60;0.60;;;6.10;99.90;;;5.28;100.00;97209.38;5016304;28;20045;-37
2023/12/20 00:34:26;;;;;;;1.00;0.80;;;6.10;99.90;;;5.26;100.00;97218.16;5010575;28;20544;-38
2023/12/20 00:36:52;;;;;;;1.27;0.80;;;6.00;99.90;;;5.22;100.00;97214.72;5014145;28;20025;-37
2023/12/20 00:39:17;;;;;;;0.77;0.68;;;6.00;99.90;;;5.14;100.00;97206.16;5009693;28;20026;-38
2023/12/20 00:41:43;;;;;;;0.75;0.60;;;6.00;99.90;;;5.15;100.00;97211.38;5003985;28;20083;-38
2023/12/20 00:44:09;;;;;;;0.75;0.60;;;6.00;99.90;;;5.11;100.00;97211.44;5008413;28;20380;-37
2023/12/20 00:46:34;;;;;;;1.10;0.77;;;5.90;99.90;;;5.07;100.00;97217.63;5009580;28;20033;-37
2023/12/20 00:49:00;;;;;;;0.70;0.70;;;5.90;99.90;;;5.05;100.00;97214.19;5006506;28;20037;-37
2023/12/20 00:51:26;;;;;;;0.52;0.50;;;5.80;99.90;;;5.01;100.00;97216.00;5005327;28;20033;-37
2023/12/20 00:53:54;;;;;;;1.17;0.77;;;5.80;99.90;;;5.00;100.00;97216.00;5005893;28;20075;-37
2023/12/20 00:56:21;;;;;;;1.27;0.70;;;5.80;99.90;;;4.87;100.00;97194.47;5003649;28;20029;-40
2023/12/20 00:58:46;;;;;;;1.92;0.70;;;5.70;99.90;;;4.93;100.00;97204.78;5006975;28;20033;-37
2023/12/20 01:01:12;;;;;;;0.77;0.77;;;5.70;99.90;;;4.91;100.00;97203.97;5005782;28;20092;-38
2023/12/20 01:03:38;;;;;;;2.72;1.00;;;5.70;99.90;;;4.88;100.00;97209.25;5008608;28;22569;-37
2023/12/20 01:06:05;;;;;;;0.80;0.80;;;5.70;99.90;;;4.85;100.00;97206.69;5012623;28;20041;-37
2023/12/20 01:08:30;;;;;;;0.68;0.63;;;5.60;99.90;;;4.81;100.00;97212.84;5006347;28;20432;-37
2023/12/20 01:10:56;;;;;;;0.70;0.60;;;5.60;99.90;;;4.80;100.00;97226.81;5008027;28;20061;-37
2023/12/20 01:13:22;;;;;;;0.90;0.70;;;5.60;99.90;;;4.75;100.00;97216.44;4999204;28;20037;-38
2023/12/20 01:15:48;;;;;;;1.23;0.80;;;5.60;99.90;;;4.69;100.00;97217.41;5009822;28;20037;-37
2023/12/20 01:18:14;;;;;;;0.85;0.70;;;5.50;99.90;;;4.70;100.00;97223.47;5006269;28;21028;-37
2023/12/20 01:20:40;;;;;;;0.88;0.75;;;5.50;99.90;;;4.67;100.00;97221.78;5006899;28;20499;-37
2023/12/20 01:23:05;;;;;;;1.60;0.75;;;5.50;99.90;;;4.63;100.00;97220.13;5015024;28;20033;-37
2023/12/20 01:25:31;;;;;;;1.30;0.93;;;5.40;99.90;;;4.61;100.00;97218.41;5003411;28;20341;-38
2023/12/20 01:27:57;;;;;;;1.05;0.80;;;5.40;99.90;;;4.59;100.00;97223.66;5006218;28;20528;-38
2023/12/20 01:30:22;;;;;;;2.83;0.80;;;5.40;99.90;;;4.57;100.00;97228.03;5003913;28;20029;-37
2023/12/20 01:32:48;;;;;;;1.20;0.70;;;5.40;99.90;;;4.56;100.00;97229.78;5006965;28;20120;-37
2023/12/20 01:35:14;;;;;;;0.77;0.73;;;5.40;99.90;;;4.57;100.00;97228.03;5005490;28;20041;-37
2023/12/20 01:37:40;;;;;;;1.20;0.82;;;5.30;99.90;;;4.55;100.00;97227.19;5005810;28;20040;-37
2023/12/20 01:40:06;;;;;;;1.67;0.90;;;5.30;99.90;;;4.57;100.00;97225.44;5004910;28;20057;-37
2023/12/20 01:42:32;;;;;;;0.60;0.50;;;5.30;99.90;;;4.54;100.00;97236.78;5002730;28;20398;-37
2023/12/20 01:44:57;;;;;;;1.10;0.80;;;5.30;99.90;;;4.54;100.00;97226.34;5007158;28;20045;-37
2023/12/20 01:47:23;;;;;;;0.85;0.60;;;5.30;99.90;;;4.55;100.00;97233.28;5007452;28;20486;-37
2023/12/20 01:49:50;;;;;;;1.15;0.82;;;5.30;99.90;;;4.44;100.00;97218.69;5011421;28;20118;-37
2023/12/20 01:52:16;;;;;;;0.73;0.73;;;5.30;99.90;;;4.56;100.00;97242.00;4993106;28;20037;-38
2023/12/20 01:54:43;;;;;;;1.50;0.80;;;5.30;99.90;;;4.46;100.00;97222.97;5010854;28;20244;-37
2023/12/20 01:57:09;;;;;;;1.85;0.88;;;5.30;99.90;;;4.54;100.00;97217.63;4997822;28;20056;-38
2023/12/20 01:59:35;;;;;;;1.40;0.90;;;5.40;99.90;;;4.52;100.00;97219.41;4992097;28;20444;-37
2023/12/20 02:02:03;;;;;;;0.68;0.68;;;5.30;99.90;;;4.52;100.00;97219.41;5010627;28;20112;-38
2023/12/20 02:04:29;;;;;;;1.00;0.80;;;5.30;99.90;;;4.53;100.00;97234.19;5007791;28;20037;-38
2023/12/20 02:06:57;;;;;;;2.40;0.70;;;5.30;99.90;;;4.52;100.00;97227.25;5009913;28;20030;-37
2023/12/20 02:09:23;;;;;;;1.20;0.60;;;5.30;99.90;;;4.52;100.00;97225.50;4991431;28;20037;-37
2023/12/20 02:11:49;;;;;;;0.95;0.82;;;5.30;99.90;;;4.52;100.00;97217.69;5012480;28;20077;-37
2023/12/20 02:14:15;;;;;;;0.88;0.65;;;5.30;99.90;;;4.53;100.00;97224.59;5012216;28;20036;-38
2023/12/20 02:16:41;;;;;;;1.10;0.80;;;5.30;99.90;;;4.49;100.00;97227.31;5005098;28;20029;-37
2023/12/20 02:19:14;;;;;;;1.23;0.80;;;5.30;99.90;;;4.52;100.00;97217.69;5013246;28;20025;-38
2023/12/20 02:21:40;;;;;;;0.98;0.70;;;5.30;99.90;;;4.54;100.00;97228.06;5010450;28;20037;-37
2023/12/20 02:24:05;;;;;;;2.10;0.80;;;5.30;99.90;;;4.54;100.00;97222.84;5013607;28;20038;-38
2023/12/20 02:26:33;;;;;;;2.08;0.70;;;5.30;99.90;;;4.55;100.00;97221.97;5005895;28;20034;-37
2023/12/20 02:29:00;;;;;;;0.80;0.70;;;5.30;99.90;;;4.54;100.00;97220.25;5011309;28;20494;-37
2023/12/20 02:31:25;;;;;;;0.88;0.63;;;5.30;99.90;;;4.53;100.00;97223.75;4990443;28;20092;-37
2023/12/20 02:33:51;;;;;;;1.17;0.70;;;5.30;99.90;;;4.54;100.00;97228.06;5014395;28;20037;-37
2023/12/20 02:36:17;;;;;;;0.80;0.73;;;5.30;99.90;;;4.54;100.00;97223.75;4992917;28;20203;-37
2023/12/20 02:38:42;;;;;;;1.58;0.80;;;5.30;99.90;;;4.52;100.00;97225.50;5010493;28;20034;-37
2023/12/20 02:41:08;;;;;;;1.02;0.80;;;5.30;99.90;;;4.52;100.00;97235.97;5012250;28;20038;-37
2023/12/20 02:43:33;;;;;;;0.98;0.75;;;5.30;99.90;;;4.50;100.00;97237.72;5008588;28;20038;-37
2023/12/20 02:45:59;;;;;;;0.80;0.65;;;5.30;99.90;;;4.48;100.00;97225.56;5004802;28;20041;-37
2023/12/20 02:48:25;;;;;;;2.90;0.93;;;5.30;99.90;;;4.45;100.00;97231.72;5010874;28;20433;-37
2023/12/20 02:50:51;;;;;;;0.73;0.73;;;5.20;99.90;;;4.44;100.00;97235.19;5011388;28;20619;-38
2023/12/20 02:53:17;;;;;;;2.67;1.00;;;5.20;99.90;;;4.43;100.00;97224.78;4996506;28;20069;-39
2023/12/20 02:55:42;;;;;;;1.48;0.75;;;5.20;99.90;;;4.42;100.00;97230.91;5003169;28;20168;-38
2023/12/20 02:58:08;;;;;;;1.00;0.80;;;5.20;99.90;;;4.40;100.00;97229.16;5009484;28;20029;-37
2023/12/20 03:00:34;;;;;;;3.33;0.75;;;5.20;99.90;;;4.39;100.00;97234.41;5006352;28;20549;-37
2023/12/20 03:02:59;;;;;;;1.30;1.00;;;5.20;99.90;;;4.31;100.00;97225.84;5012099;28;20223;-37
2023/12/20 03:05:25;;;;;;;0.70;0.63;;;5.20;99.90;;;4.36;100.00;97237.94;5008527;28;20493;-38
2023/12/20 03:07:51;;;;;;;2.83;0.60;;;5.20;99.90;;;4.48;100.00;97238.63;5008392;28;20037;-37
2023/12/20 03:10:18;;;;;;;2.72;1.00;;;5.20;99.90;;;4.43;100.00;97233.47;5008727;28;20033;-38
2023/12/20 03:12:44;;;;;;;0.65;0.50;;;5.20;99.90;;;4.39;100.00;97235.25;5009315;28;20033;-37
2023/12/20 03:15:10;;;;;;;0.38;0.30;;;5.20;99.90;;;4.41;100.00;97235.25;5012183;28;20034;-37
2023/12/20 03:17:36;;;;;;;1.95;0.40;;;5.20;99.90;;;4.39;100.00;97244.84;5006176;28;20398;-39
2023/12/20 03:20:02;;;;;;;0.60;0.47;;;5.20;99.90;;;4.38;100.00;97248.38;5012615;28;20040;-38
2023/12/20 03:22:28;;;;;;;0.52;0.35;;;5.20;99.90;;;4.36;100.00;97244.88;5007465;28;20370;-37
2023/12/20 03:24:53;;;;;;;1.65;0.30;;;5.20;99.90;;;4.33;100.00;97247.56;5013253;28;20033;-37
2023/12/20 03:27:19;;;;;;;0.68;0.50;;;5.10;99.90;;;4.32;100.00;97248.44;5000334;28;20025;-37
2023/12/20 03:29:45;;;;;;;0.28;0.20;;;5.10;99.90;;;4.32;100.00;97241.47;5002667;28;20313;-38
2023/12/20 03:32:10;;;;;;;0.70;0.30;;;5.10;99.90;;;4.29;100.00;97244.13;4997101;28;20397;-37
2023/12/20 03:34:36;;;;;;;0.82;0.40;;;5.10;99.90;;;4.28;100.00;97244.16;5011763;28;20037;-38
2023/12/20 03:37:02;;;;;;;0.88;0.28;;;5.10;99.90;;;4.31;100.00;97238.91;5011743;28;20044;-37
2023/12/20 03:39:27;;;;;;;0.60;0.20;;;5.10;99.90;;;4.27;100.00;97245.03;5002271;28;20102;-38
2023/12/20 03:41:53;;;;;;;0.20;0.10;;;5.10;99.90;;;4.25;100.00;97244.19;5004210;28;20048;-38
2023/12/20 03:44:20;;;;;;;0.47;0.22;;;5.00;99.90;;;4.23;100.00;97252.03;5012827;28;20030;-37
2023/12/20 03:46:46;;;;;;;0.10;0.10;;;5.10;99.90;;;4.23;100.00;97251.19;5005830;28;20513;-38
2023/12/20 03:49:11;;;;;;;0.10;0.10;;;5.00;99.90;;;4.19;100.00;97263.41;5008434;28;20040;-39
2023/12/20 03:51:37;;;;;;;0.20;0.20;;;5.00;99.90;;;4.17;100.00;97255.59;5003642;28;20401;-37
2023/12/20 03:54:03;;;;;;;0.10;0.10;;;5.00;99.90;;;4.16;100.00;97266.06;5001477;28;20037;-38
2023/12/20 03:56:28;;;;;;;0.15;0.13;;;4.90;99.90;;;4.13;100.00;97273.94;4968635;28;20441;-39
2023/12/20 03:58:54;;;;;;;0.10;0.10;;;4.90;99.90;;;4.10;100.00;97258.31;4999714;28;20598;-38
2023/12/20 04:01:20;;;;;;;0.20;0.10;;;4.90;99.90;;;4.07;100.00;97261.81;5006616;28;20038;-38
2023/12/20 04:03:45;;;;;;;0.20;0.10;;;4.90;99.90;;;4.06;100.00;97264.47;5007955;28;20030;-39
2023/12/20 04:06:17;;;;;;;0.10;0.10;;;4.90;99.90;;;4.04;100.00;97267.09;5013092;28;20021;-38
2023/12/20 04:08:43;;;;;;;0.80;0.20;;;4.90;99.90;;;4.07;100.00;97260.97;5006890;28;20040;-37
2023/12/20 04:11:09;;;;;;;0.10;0.10;;;4.90;99.90;;;4.05;100.00;97267.97;5010441;28;20033;-38
2023/12/20 04:13:34;;;;;;;0.15;0.10;;;4.80;99.90;;;4.01;100.00;97268.00;5007052;28;20449;-37
2023/12/20 04:16:00;;;;;;;0.20;0.20;;;4.80;99.90;;;4.00;100.00;97255.84;5009226;28;20044;-37
2023/12/20 04:18:26;;;;;;;1.38;0.13;;;4.80;99.90;;;3.98;100.00;97255.00;5010811;28;20033;-36
2023/12/20 04:20:51;;;;;;;0.10;0.10;;;4.80;99.90;;;3.96;100.00;97258.50;5011463;28;20044;-37
2023/12/20 04:23:17;;;;;;;0.52;0.10;;;4.80;99.90;;;3.94;100.00;97268.94;5011087;28;20037;-37
2023/12/20 04:25:43;;;;;;;1.67;0.17;;;4.80;99.90;;;3.93;100.00;97268.97;5006431;28;20421;-38
2023/12/20 04:28:08;;;;;;;0.20;0.20;;;4.70;99.90;;;3.91;100.00;97281.16;5009349;28;20048;-38
2023/12/20 04:30:35;;;;;;;0.43;0.10;;;4.70;99.90;;;3.92;100.00;97290.75;5010562;28;20394;-37
2023/12/20 04:33:00;;;;;;;0.20;0.15;;;4.70;99.90;;;3.92;100.00;97277.69;5010163;28;20030;-37
2023/12/20 04:35:26;;;;;;;0.10;0.10;;;4.70;99.90;;;3.85;100.00;97274.28;5010666;28;20054;-38
2023/12/20 04:37:52;;;;;;;1.85;0.20;;;4.70;99.90;;;3.79;100.00;97256.13;5006171;28;20120;-38
2023/12/20 04:40:17;;;;;;;0.20;0.10;;;4.70;99.90;;;3.82;100.00;97277.81;5009794;28;20026;-37
2023/12/20 04:42:43;;;;;;;0.10;0.10;;;4.70;99.90;;;3.83;100.00;97284.72;5009031;28;20029;-37
2023/12/20 04:45:09;;;;;;;0.30;0.10;;;4.70;99.90;;;3.83;100.00;97289.09;5008714;28;20410;-37
2023/12/20 04:47:35;;;;;;;0.00;0.00;;;4.60;99.90;;;3.79;100.00;97293.50;5010024;28;20041;-38
2023/12/20 04:50:02;;;;;;;0.10;0.10;;;4.60;99.90;;;3.82;100.00;97301.28;5005825;28;20033;-37
2023/12/20 04:52:27;;;;;;;0.60;0.10;;;4.60;99.90;;;3.82;100.00;97292.56;5009844;28;20049;-37
2023/12/20 04:54:53;;;;;;;0.20;0.20;;;4.60;99.90;;;3.81;100.00;97294.34;5009986;28;20030;-37
2023/12/20 04:57:19;;;;;;;0.73;0.20;;;4.60;99.90;;;3.81;100.00;97294.34;5010723;28;20552;-37
2023/12/20 04:59:44;;;;;;;0.30;0.10;;;4.70;99.90;;;3.82;100.00;97301.28;5007476;28;20038;-38
2023/12/20 05:02:10;;;;;;;0.10;0.10;;;4.70;99.90;;;3.83;100.00;97300.38;5004288;28;20041;-37
2023/12/20 05:04:36;;;;;;;0.22;0.10;;;4.70;99.90;;;3.81;100.00;97309.13;5002853;28;20041;-37
2023/12/20 05:07:01;;;;;;;0.03;0.03;;;4.70;99.90;;;3.82;100.00;97297.78;5006692;28;20029;-37
2023/12/20 05:09:27;;;;;;;0.40;0.30;;;4.60;99.90;;;3.82;100.00;97303.91;5011914;28;20056;-37
2023/12/20 05:11:53;;;;;;;0.17;0.17;;;4.60;99.90;;;3.83;100.00;97313.44;5010750;28;20351;-37
2023/12/20 05:14:19;;;;;;;0.52;0.10;;;4.70;99.90;;;3.83;100.00;97310.81;5010627;28;20504;-38
2023/12/20 05:16:45;;;;;;;1.13;0.15;;;4.70;99.90;;;3.82;100.00;97303.91;5010895;28;20109;-38
2023/12/20 05:19:10;;;;;;;0.85;0.10;;;4.70;99.90;;;3.85;100.00;97313.41;5013520;28;20036;-35
2023/12/20 05:21:36;;;;;;;0.10;0.10;;;4.70;99.90;;;3.82;100.00;97318.66;5012688;28;20041;-38
2023/12/20 05:24:02;;;;;;;2.83;0.10;;;4.70;99.90;;;3.82;100.00;97324.78;4994193;28;20030;-37
2023/12/20 05:26:29;;;;;;;0.30;0.10;;;4.60;99.90;;;3.81;100.00;97312.59;5007999;28;20037;-37
2023/12/20 05:28:55;;;;;;;0.10;0.10;;;4.60;99.90;;;3.85;100.00;97321.25;5006927;28;20124;-37
2023/12/20 05:31:20;;;;;;;0.55;0.20;;;4.70;99.90;;;3.73;100.00;97296.19;5002698;28;20572;-37
2023/12/20 05:33:46;;;;;;;0.10;0.10;;;4.70;99.90;;;3.91;100.00;97322.91;5005782;28;20037;-38
2023/12/20 05:36:13;;;;;;;1.77;0.20;;;4.70;99.90;;;3.79;100.00;97313.50;5008915;28;20045;-38
2023/12/20 05:38:39;;;;;;;0.35;0.20;;;4.70;99.90;;;3.80;100.00;97321.31;5013072;28;20029;-38
2023/12/20 05:41:05;;;;;;;0.35;0.20;;;4.70;99.90;;;3.89;100.00;97335.97;4992648;28;20254;-37
2023/12/20 05:43:30;;;;;;;2.05;0.20;;;4.70;99.90;;;3.93;100.00;97342.91;5006151;28;20417;-37
2023/12/20 05:45:56;;;;;;;0.38;0.30;;;4.70;99.90;;;3.91;100.00;97339.47;5009569;28;20041;-37
2023/12/20 05:48:22;;;;;;;0.38;0.20;;;4.80;99.90;;;3.89;100.00;97335.97;5014673;28;20104;-37
2023/12/20 05:50:49;;;;;;;0.52;0.30;;;4.80;99.90;;;3.94;100.00;97343.75;5008777;28;20040;-37
2023/12/20 05:53:14;;;;;;;0.10;0.10;;;4.80;99.90;;;3.95;100.00;97354.19;5013114;28;20037;-37
2023/12/20 05:55:40;;;;;;;1.77;0.30;;;4.80;99.90;;;3.93;100.00;97358.56;5006288;28;20356;-38
2023/12/20 05:58:06;;;;;;;0.30;0.20;;;4.80;99.90;;;3.92;100.00;97356.81;5012428;28;20039;-37
2023/12/20 06:00:32;;;;;;;1.08;0.32;;;4.80;99.90;;;3.84;100.00;97356.06;5014123;28;20064;-37
2023/12/20 06:02:57;;;;;;;0.20;0.20;;;4.80;99.90;;;3.91;100.00;97368.16;5006474;28;20690;-37
2023/12/20 06:05:23;;;;;;;0.28;0.20;;;4.80;99.90;;;3.92;100.00;97369.00;5012838;28;20524;-37
2023/12/20 06:07:50;;;;;;;0.30;0.20;;;4.70;99.90;;;3.92;100.00;97382.91;5009209;28;20033;-37
2023/12/20 06:10:16;;;;;;;1.20;0.20;;;4.80;99.90;;;3.94;100.00;97385.50;5011619;28;20449;-38
2023/12/20 06:12:42;;;;;;;1.52;0.22;;;4.80;99.90;;;3.98;100.00;97389.81;5003552;28;20038;-37
2023/12/20 06:15:08;;;;;;;0.50;0.30;;;4.80;99.90;;;3.97;100.00;97386.34;4992788;28;20080;-37
2023/12/20 06:17:34;;;;;;;0.50;0.20;;;4.80;99.90;;;4.06;100.00;97384.53;5008367;28;20452;-37
2023/12/20 06:20:01;;;;;;;0.40;0.30;;;4.80;99.90;;;4.01;100.00;97376.72;5011896;28;20034;-37
2023/12/20 06:22:26;;;;;;;0.32;0.32;;;4.80;99.90;;;4.01;100.00;97388.03;5012317;28;20042;-37
2023/12/20 06:24:52;;;;;;;3.50;0.43;;;4.80;99.90;;;4.01;100.00;97382.81;5011448;28;20041;-38
2023/12/20 06:27:18;;;;;;;2.40;0.32;;;4.90;99.90;;;4.01;100.00;97384.56;5014155;28;20037;-37
2023/12/20 06:29:44;;;;;;;0.40;0.30;;;4.90;99.90;;;4.02;100.00;97368.03;5012574;28;20037;-38
2023/12/20 06:32:10;;;;;;;1.15;0.22;;;4.90;99.90;;;3.94;100.00;97359.41;5012494;28;20029;-37
2023/12/20 06:34:36;;;;;;;1.10;0.20;;;4.80;99.90;;;4.03;100.00;97369.75;5012296;28;20060;-37
2023/12/20 06:37:02;;;;;;;0.77;0.20;;;4.80;99.90;;;4.07;100.00;97371.44;5012925;28;20511;-38
2023/12/20 06:39:28;;;;;;;0.30;0.30;;;4.90;99.90;;;4.07;100.00;97366.22;5012086;28;20052;-38
2023/12/20 06:41:53;;;;;;;1.77;0.50;;;4.90;99.90;;;4.01;100.00;97369.75;5014077;28;20337;-37
2023/12/20 06:44:19;;;;;;;2.85;0.50;;;4.90;99.90;;;4.01;100.00;97372.38;5014669;28;20040;-38
2023/12/20 06:46:45;;;;;;;0.75;0.50;;;4.90;99.90;;;4.09;100.00;97390.56;5015296;28;20033;-38
2023/12/20 06:49:10;;;;;;;1.38;0.40;;;4.90;99.90;;;4.12;100.00;97385.28;5010258;28;20037;-37
2023/12/20 06:51:36;;;;;;;0.40;0.40;;;4.90;99.90;;;4.14;100.00;97395.72;5009577;28;20033;-37
2023/12/20 06:54:02;;;;;;;0.98;0.40;;;4.90;99.90;;;4.14;100.00;97390.50;5008975;28;20740;-37
2023/12/20 06:56:28;;;;;;;1.83;0.52;;;5.00;99.90;;;4.15;100.00;97400.94;4994309;28;20375;-38
2023/12/20 06:58:54;;;;;;;0.50;0.50;;;5.00;99.90;;;4.17;100.00;97403.53;5011304;28;20040;-38
2023/12/20 07:01:19;;;;;;;0.50;0.50;;;5.00;99.90;;;4.19;100.00;97409.59;5014489;28;20029;-37
2023/12/20 07:03:45;;;;;;;0.88;0.32;;;5.00;99.90;;;4.19;100.00;97409.59;5009486;28;20044;-37
2023/12/20 07:06:11;;;;;;;0.32;0.30;;;5.00;99.90;;;4.21;100.00;97416.50;5003483;28;20687;-37
2023/12/20 07:08:36;;;;;;;0.45;0.32;;;5.00;99.90;;;4.23;100.00;97421.72;5011489;28;20038;-38
2023/12/20 07:11:02;;;;;;;0.82;0.70;;;5.00;99.90;;;4.16;100.00;97407.00;5005322;28;20029;-37
2023/12/20 07:13:28;;;;;;;1.50;0.95;;;5.00;99.90;;;4.23;100.00;97419.09;5001294;28;20752;-37
2023/12/20 07:15:54;;;;;;;1.25;1.02;;;5.10;99.90;;;4.26;100.00;97424.31;4999748;28;20425;-37
2023/12/20 07:18:19;;;;;;;3.38;1.13;;;5.10;99.90;;;4.27;100.00;97430.38;5010958;28;20132;-37
2023/12/20 07:20:45;;;;;;;2.03;1.10;;;5.10;99.90;;;4.29;100.00;97439.06;5005478;28;20040;-37
2023/12/20 07:23:11;;;;;;;1.83;1.40;;;5.10;99.90;;;4.28;100.00;97442.56;5012108;28;20021;-38
2023/12/20 07:25:37;;;;;;;1.45;1.13;;;5.10;99.90;;;4.30;100.00;97451.25;5006286;28;20091;-38
2023/12/20 07:28:02;;;;;;;1.67;1.38;;;5.10;99.90;;;4.30;100.00;97462.53;5003683;28;20498;-38
2023/12/20 07:30:28;;;;;;;3.00;1.75;;;5.10;99.90;;;4.26;100.00;97458.25;5009675;28;20044;-39
2023/12/20 07:32:54;;;;;;;1.60;1.40;;;5.10;99.90;;;4.27;100.00;97457.38;5005622;28;20045;-38
2023/12/20 07:35:19;;;;;;;2.35;1.80;;;5.10;99.90;;;4.27;100.00;97454.75;5007415;28;20037;-38
2023/12/20 07:37:45;;;;;;;3.53;1.58;;;5.10;99.90;;;4.24;100.00;97461.75;5001509;28;20041;-38
2023/12/20 07:40:11;;;;;;;2.67;1.55;;;5.10;99.90;;;4.23;100.00;97463.50;5010719;28;20498;-38
2023/12/20 07:42:37;;;;;;;2.33;1.52;;;5.00;99.90;;;4.20;100.00;97467.00;5006721;28;20061;-38
2023/12/20 07:45:04;;;;;;;3.35;2.00;;;5.00;99.90;;;4.19;100.00;97480.06;5004924;28;20749;-39
2023/12/20 07:47:30;;;;;;;3.63;1.92;;;5.00;99.90;;;4.18;100.00;97475.72;5005300;28;20519;-38
2023/12/20 07:49:55;;;;;;;3.08;1.85;;;5.00;99.90;;;4.08;100.00;97461.91;5003230;28;20041;-38
2023/12/20 07:52:24;;;;;;;2.58;1.92;;;5.00;99.90;;;4.12;100.00;97481.00;4999406;28;20248;-39
2023/12/20 07:54:49;;;;;;;3.67;2.25;;;4.90;99.90;;;3.97;100.00;97464.63;5007674;28;20057;-38
2023/12/20 07:57:15;;;;;;;2.45;1.88;;;4.80;99.90;;;3.83;100.00;97471.72;5014828;28;20211;-38
2023/12/20 07:59:41;;;;;;;3.50;2.10;;;4.70;99.90;;;3.67;100.00;97464.91;5005833;28;20040;-38
2023/12/20 08:02:06;;;;;;;2.97;1.88;;;4.60;99.90;;;3.59;100.00;97478.03;5007954;28;20478;-38
2023/12/20 08:04:32;;;;;;;2.70;1.73;;;4.40;99.90;;;3.53;100.00;97473.69;5007136;28;20188;-37
2023/12/20 08:06:58;;;;;;;4.00;2.15;;;4.30;99.90;;;3.52;100.00;97477.19;5002342;28;20135;-39
2023/12/20 08:09:24;;;;;;;1.98;1.70;;;4.30;99.90;;;3.41;100.00;97468.56;4999382;28;20489;-38
2023/12/20 08:11:53;;;;;;;4.28;2.50;;;4.30;99.90;;;3.41;100.00;97479.00;5002318;28;20060;-38
2023/12/20 08:14:18;;;;;;;6.03;2.38;;;4.20;99.90;;;3.44;100.00;97489.41;5001848;28;20634;-38
2023/12/20 08:16:44;;;;;;;3.72;2.35;;;4.30;99.90;;;3.45;100.00;97483.34;5002459;28;20034;-37
2023/12/20 08:19:10;;;;;;;5.63;2.10;;;4.30;99.90;;;3.47;100.00;97489.41;5002774;28;20038;-37
2023/12/20 08:21:35;;;;;;;5.57;2.03;;;4.30;99.90;;;3.50;100.00;97494.59;5001520;28;20028;-38
2023/12/20 08:24:01;;;;;;;5.47;2.10;;;4.30;99.90;;;3.50;100.00;97494.59;5001344;28;20523;-37
2023/12/20 08:26:27;;;;;;;4.93;2.40;;;4.40;99.90;;;3.50;100.00;97488.50;5003658;28;24874;-38
2023/12/20 08:28:53;;;;;;;4.13;2.58;;;4.50;99.90;;;3.59;100.00;97499.75;4998642;28;20029;-39
2023/12/20 08:31:19;;;;;;;7.18;2.30;;;4.50;99.90;;;3.59;100.00;97498.88;5001385;28;20077;-38
2023/12/20 08:33:46;;;;;;;6.78;2.72;;;4.40;99.90;;;3.53;100.00;97499.78;4991328;28;20115;-40
2023/12/20 08:36:12;;;;;;;4.70;2.20;;;4.40;99.90;;;3.44;100.00;97498.09;5005538;28;20555;-40
2023/12/20 08:38:38;;;;;;;5.15;2.30;;;4.30;99.90;;;3.31;100.00;97499.06;4998514;28;20021;-38
2023/12/20 08:41:07;;;;;;;3.83;2.42;;;4.20;99.90;;;3.14;100.00;97501.78;5006761;28;20385;-38
2023/12/20 08:43:34;;;;;;;3.30;2.05;;;4.10;99.90;;;3.19;100.00;97526.06;5017706;28;20042;-39
2023/12/20 08:45:59;;;;;;;6.72;2.03;;;4.10;99.90;;;3.16;100.00;97517.38;5012909;28;20147;-38
2023/12/20 08:48:25;;;;;;;3.30;2.08;;;4.00;99.90;;;3.06;100.00;97527.88;5015274;28;20073;-39
2023/12/20 08:50:52;;;;;;;4.70;2.13;;;3.90;99.90;;;2.93;100.00;97526.22;5015393;28;20037;-36
2023/12/20 08:53:18;;;;;;;7.13;2.40;;;3.80;99.90;;;2.86;100.00;97533.19;5006820;28;20067;-36
2023/12/20 08:55:44;;;;;;;4.72;2.50;;;3.70;99.90;;;2.97;100.00;97540.94;5000275;28;20049;-37
2023/12/20 08:58:10;;;;;;;2.80;2.22;;;3.70;99.90;;;2.94;100.00;97540.09;5013387;28;20750;-36
2023/12/20 09:00:36;;;;;;;4.22;2.50;;;3.70;99.90;;;2.94;100.00;97534.88;5008655;28;20029;-36
2023/12/20 09:03:02;;;;;;;5.60;2.30;;;3.80;99.90;;;2.99;100.00;97527.91;5006120;28;20056;-37
2023/12/20 09:05:28;;;;;;;4.22;2.30;;;3.80;99.90;;;2.94;100.00;97527.91;5010656;28;20378;-37
2023/12/20 09:07:54;;;;;;;4.43;2.50;;;3.80;99.90;;;2.93;100.00;97518.41;4996938;28;20041;-37
2023/12/20 09:10:22;;;;;;;3.47;2.35;;;3.80;99.90;;;2.90;100.00;97517.53;5006139;28;20036;-37
2023/12/20 09:12:56;;;;;;;6.15;2.60;;;3.80;99.90;;;2.94;100.00;97534.88;5007949;28;20434;-37
2023/12/20 09:15:25;;;;;;;6.65;2.40;;;3.80;99.90;;;3.05;100.00;97539.19;5014770;28;20033;-37
2023/12/20 09:17:51;;;;;;;5.00;2.35;;;3.90;99.90;;;3.08;100.00;97537.44;5013746;28;20120;-37
2023/12/20 09:20:16;;;;;;;7.65;2.17;;;3.90;99.90;;;3.06;100.00;97513.97;5005018;28;20071;-39
2023/12/20 09:22:42;;;;;;;3.40;2.30;;;4.00;99.90;;;3.17;100.00;97530.41;4990161;28;20323;-37
2023/12/20 09:25:11;;;;;;;4.05;2.08;;;4.00;99.90;;;3.22;100.00;97525.19;5006523;28;20034;-37
2023/12/20 09:27:37;;;;;;;3.88;2.05;;;4.00;99.90;;;3.09;100.00;97508.75;4997638;28;20037;-38
2023/12/20 09:30:05;;;;;;;4.07;2.10;;;4.10;99.90;;;3.28;100.00;97529.50;5013753;28;20501;-38
2023/12/20 09:32:31;;;;;;;4.93;1.73;;;4.10;99.90;;;3.19;100.00;97520.84;5014890;28;20064;-37
2023/12/20 09:34:57;;;;;;;3.55;1.45;;;4.10;99.90;;;3.20;100.00;97534.75;5016834;28;20116;-37
2023/12/20 09:37:26;;;;;;;4.78;1.88;;;4.10;99.90;;;3.25;100.00;97536.47;5008696;28;20025;-38
2023/12/20 09:39:52;;;;;;;2.58;1.02;;;4.10;99.90;;;3.30;100.00;97540.78;5009082;28;20029;-38
2023/12/20 09:42:27;;;;;;;3.58;1.50;;;4.10;99.90;;;3.32;100.00;97542.50;5004800;28;20029;-39
2023/12/20 09:44:52;;;;;;;6.00;1.17;;;4.20;99.90;;;3.38;100.00;97552.91;4997938;28;20099;-38
2023/12/20 09:47:22;;;;;;;7.28;1.55;;;4.20;99.90;;;3.43;100.00;97550.28;5016348;28;20026;-37
2023/12/20 09:49:48;;;;;;;1.98;1.15;;;4.30;99.90;;;3.39;100.00;97549.44;4998417;28;20040;-37
2023/12/20 09:52:16;;;;;;;1.60;0.98;;;4.30;99.90;;;3.40;100.00;97556.34;5004369;28;20037;-37
2023/12/20 09:54:43;;;;;;;6.20;1.30;;;4.30;99.90;;;3.41;100.00;97559.81;5009400;28;20033;-37
2023/12/20 09:57:10;;;;;;;3.10;0.98;;;4.30;99.90;;;3.53;100.00;97564.09;5012961;28;20125;-38
2023/12/20 09:59:35;;;;;;;3.80;1.30;;;4.40;99.90;;;3.63;100.00;97563.19;5014146;28;20036;-37
2023/12/20 10:02:04;;;;;;;3.40;1.30;;;4.50;99.90;;;3.69;100.00;97551.84;5010771;28;20037;-37
2023/12/20 10:04:32;;;;;;;3.35;0.85;;;4.60;99.90;;;3.82;100.00;97556.06;5005434;28;20443;-37
2023/12/20 10:07:05;;;;;;;5.28;1.20;;;4.60;99.90;;;3.93;100.00;97559.47;5006935;28;20037;-38
2023/12/20 10:09:32;;;;;;;4.25;1.20;;;4.70;99.90;;;4.08;100.00;97565.44;5004361;28;20091;-38
2023/12/20 10:11:58;;;;;;;5.55;1.35;;;4.90;99.90;;;4.32;100.00;97564.34;5006296;28;20033;-38
2023/12/20 10:14:24;;;;;;;1.50;0.90;;;5.20;99.90;;;4.57;100.00;97559.75;5014170;28;20057;-39
2023/12/20 10:16:50;;;;;;;6.28;1.20;;;5.40;99.90;;;4.59;100.00;97531.88;5011567;28;20490;-38
2023/12/20 10:19:19;;;;;;;3.60;1.00;;;5.60;99.90;;;4.81;100.00;97542.97;5009717;28;20117;-37